UPSVAC Airport Information Service

Tampa International Airport

ICAO: KTPA Country: United States
Latitude: 27.9755 Longitude: -82.5332
Latest Arrival : UPSJUMP (KPHL-KTPA) Latest Departure : UPSJUMP (KTPA-KPHL)


WX CaptureLIVE
Data provided by noaa.gov | Fetched at 09:33:52

METAR : KTPA 010853Z 16004KT 10SM CLR 23/20 A3006 RMK AO2 SLP178 T02280200 56009

TAF : KTPA 010530Z 0106/0212 17005KT P6SM SCT029 TEMPO 0106/0108 BKN029 FM010900 VRB03KT P6SM FEW007 TEMPO 0110/0114 5SM BR BKN007 FM011400 17007KT P6SM SCT020 SCT250 TEMPO 0114/0116 BKN020 FM011700 21012KT P6SM SCT040 SCT250 TEMPO 0117/0121 BKN040 FM012300 24005KT P6SM SCT050 SCT250


Runway Data for KTPA
Data provided by openaviationdata.com

Runway ID Mag Var Hdg Length Elevation Surface ILS Freq ILS Id ILS Slope
9 -2 93° 6992 ft 26 ft Concrete -- -- --
18L -2 183° 8323 ft 26 ft Concrete 110.3 ITPA 3
18R -2 183° 11032 ft 26 ft Concrete 108.5 IJRT 3
27 -2 273° 6992 ft 26 ft Concrete -- -- --
36L -2 11032 ft 26 ft Concrete 108.9 IAMP 3
36R -2 8323 ft 26 ft Concrete 111.95 ITWJ 0

Tampa International Airport, United States
Use only for reference purposes



Not for navigational purposes.